sensor_id;sensor_type;location;lat;lon;timestamp;P1;durP1;ratioP1;P2;durP2;ratioP2
23416;SDS011;11881;42.432;25.632;2022-11-13T00:00:52;5.80;;;4.80;;
23416;SDS011;11881;42.432;25.632;2022-11-13T00:03:18;8.10;;;4.30;;
23416;SDS011;11881;42.432;25.632;2022-11-13T00:05:43;7.00;;;4.97;;
23416;SDS011;11881;42.432;25.632;2022-11-13T00:08:09;6.33;;;4.93;;
23416;SDS011;11881;42.432;25.632;2022-11-13T00:10:34;7.87;;;4.97;;
23416;SDS011;11881;42.432;25.632;2022-11-13T00:13:00;6.23;;;5.27;;
23416;SDS011;11881;42.432;25.632;2022-11-13T00:15:26;7.57;;;5.43;;
23416;SDS011;11881;42.432;25.632;2022-11-13T00:17:52;6.83;;;5.00;;
23416;SDS011;11881;42.432;25.632;2022-11-13T00:20:17;7.63;;;5.40;;
23416;SDS011;11881;42.432;25.632;2022-11-13T00:22:43;5.93;;;5.33;;
23416;SDS011;11881;42.432;25.632;2022-11-13T00:25:09;9.27;;;5.07;;
23416;SDS011;11881;42.432;25.632;2022-11-13T00:27:35;6.03;;;5.33;;
23416;SDS011;11881;42.432;25.632;2022-11-13T00:30:00;8.27;;;5.47;;
23416;SDS011;11881;42.432;25.632;2022-11-13T00:32:26;5.87;;;4.87;;
23416;SDS011;11881;42.432;25.632;2022-11-13T00:34:52;7.17;;;5.87;;
23416;SDS011;11881;42.432;25.632;2022-11-13T00:37:17;7.17;;;5.27;;
23416;SDS011;11881;42.432;25.632;2022-11-13T00:39:43;6.33;;;5.27;;
23416;SDS011;11881;42.432;25.632;2022-11-13T00:42:08;8.00;;;5.40;;
23416;SDS011;11881;42.432;25.632;2022-11-13T00:44:34;9.37;;;5.60;;
23416;SDS011;11881;42.432;25.632;2022-11-13T00:46:59;5.50;;;4.90;;
23416;SDS011;11881;42.432;25.632;2022-11-13T00:49:25;8.07;;;5.47;;
23416;SDS011;11881;42.432;25.632;2022-11-13T00:51:50;7.53;;;5.03;;
23416;SDS011;11881;42.432;25.632;2022-11-13T00:54:16;7.07;;;4.90;;
23416;SDS011;11881;42.432;25.632;2022-11-13T00:56:41;5.73;;;5.00;;
23416;SDS011;11881;42.432;25.632;2022-11-13T00:59:07;7.43;;;5.33;;
23416;SDS011;11881;42.432;25.632;2022-11-13T01:01:32;6.70;;;5.20;;
23416;SDS011;11881;42.432;25.632;2022-11-13T01:03:58;7.90;;;4.90;;
23416;SDS011;11881;42.432;25.632;2022-11-13T01:06:24;6.33;;;5.27;;
23416;SDS011;11881;42.432;25.632;2022-11-13T01:08:55;8.03;;;5.07;;
23416;SDS011;11881;42.432;25.632;2022-11-13T01:11:23;7.73;;;5.33;;
23416;SDS011;11881;42.432;25.632;2022-11-13T01:13:52;6.00;;;4.90;;
23416;SDS011;11881;42.432;25.632;2022-11-13T01:16:19;7.00;;;4.80;;
23416;SDS011;11881;42.432;25.632;2022-11-13T01:18:47;6.67;;;4.30;;
23416;SDS011;11881;42.432;25.632;2022-11-13T01:21:14;6.13;;;4.60;;
23416;SDS011;11881;42.432;25.632;2022-11-13T01:23:40;7.23;;;5.30;;
23416;SDS011;11881;42.432;25.632;2022-11-13T01:26:11;6.33;;;4.90;;
23416;SDS011;11881;42.432;25.632;2022-11-13T01:28:38;6.00;;;4.57;;
23416;SDS011;11881;42.432;25.632;2022-11-13T01:31:08;6.17;;;5.53;;
23416;SDS011;11881;42.432;25.632;2022-11-13T01:33:36;8.60;;;5.57;;
23416;SDS011;11881;42.432;25.632;2022-11-13T01:36:03;9.73;;;5.07;;
23416;SDS011;11881;42.432;25.632;2022-11-13T01:38:34;9.63;;;5.57;;
23416;SDS011;11881;42.432;25.632;2022-11-13T01:41:00;7.87;;;5.30;;
23416;SDS011;11881;42.432;25.632;2022-11-13T01:43:26;7.77;;;5.50;;
23416;SDS011;11881;42.432;25.632;2022-11-13T01:48:22;8.37;;;4.90;;
23416;SDS011;11881;42.432;25.632;2022-11-13T01:50:51;5.43;;;4.87;;
23416;SDS011;11881;42.432;25.632;2022-11-13T01:53:16;6.87;;;5.13;;
23416;SDS011;11881;42.432;25.632;2022-11-13T01:55:43;7.67;;;5.40;;
23416;SDS011;11881;42.432;25.632;2022-11-13T01:58:09;7.73;;;5.03;;
23416;SDS011;11881;42.432;25.632;2022-11-13T02:00:35;6.83;;;4.90;;
23416;SDS011;11881;42.432;25.632;2022-11-13T02:03:01;9.57;;;5.60;;
23416;SDS011;11881;42.432;25.632;2022-11-13T02:05:27;5.93;;;5.23;;
23416;SDS011;11881;42.432;25.632;2022-11-13T02:07:52;7.47;;;5.60;;
23416;SDS011;11881;42.432;25.632;2022-11-13T02:10:18;9.00;;;5.43;;
23416;SDS011;11881;42.432;25.632;2022-11-13T02:12:45;6.67;;;5.17;;
23416;SDS011;11881;42.432;25.632;2022-11-13T02:15:14;7.10;;;5.50;;
23416;SDS011;11881;42.432;25.632;2022-11-13T02:17:42;7.07;;;5.93;;
23416;SDS011;11881;42.432;25.632;2022-11-13T02:20:11;8.63;;;5.20;;
23416;SDS011;11881;42.432;25.632;2022-11-13T02:25:26;10.70;;;5.33;;
23416;SDS011;11881;42.432;25.632;2022-11-13T02:27:54;7.50;;;5.70;;
23416;SDS011;11881;42.432;25.632;2022-11-13T02:30:21;8.90;;;5.87;;
23416;SDS011;11881;42.432;25.632;2022-11-13T02:32:50;7.13;;;5.87;;
23416;SDS011;11881;42.432;25.632;2022-11-13T02:35:21;9.13;;;5.73;;
23416;SDS011;11881;42.432;25.632;2022-11-13T02:38:00;8.17;;;5.77;;
23416;SDS011;11881;42.432;25.632;2022-11-13T02:40:27;7.33;;;5.50;;
23416;SDS011;11881;42.432;25.632;2022-11-13T02:42:53;6.97;;;5.93;;
23416;SDS011;11881;42.432;25.632;2022-11-13T02:45:18;10.47;;;5.60;;
23416;SDS011;11881;42.432;25.632;2022-11-13T02:47:44;7.27;;;5.73;;
23416;SDS011;11881;42.432;25.632;2022-11-13T02:50:10;8.53;;;5.83;;
23416;SDS011;11881;42.432;25.632;2022-11-13T02:52:37;7.10;;;5.70;;
23416;SDS011;11881;42.432;25.632;2022-11-13T02:55:02;7.47;;;5.97;;
23416;SDS011;11881;42.432;25.632;2022-11-13T02:57:30;6.63;;;5.27;;
23416;SDS011;11881;42.432;25.632;2022-11-13T02:59:55;6.20;;;5.60;;
23416;SDS011;11881;42.432;25.632;2022-11-13T03:02:21;8.37;;;6.17;;
23416;SDS011;11881;42.432;25.632;2022-11-13T03:04:46;6.90;;;5.73;;
23416;SDS011;11881;42.432;25.632;2022-11-13T03:07:12;8.63;;;5.63;;
23416;SDS011;11881;42.432;25.632;2022-11-13T03:09:38;9.97;;;5.80;;
23416;SDS011;11881;42.432;25.632;2022-11-13T03:12:04;8.60;;;5.93;;
23416;SDS011;11881;42.432;25.632;2022-11-13T03:14:31;8.47;;;5.80;;
23416;SDS011;11881;42.432;25.632;2022-11-13T03:16:57;8.50;;;6.03;;
23416;SDS011;11881;42.432;25.632;2022-11-13T03:19:22;7.27;;;6.13;;
23416;SDS011;11881;42.432;25.632;2022-11-13T03:21:47;10.57;;;6.90;;
23416;SDS011;11881;42.432;25.632;2022-11-13T03:24:13;8.23;;;6.03;;
23416;SDS011;11881;42.432;25.632;2022-11-13T03:26:38;10.57;;;7.13;;
23416;SDS011;11881;42.432;25.632;2022-11-13T03:29:04;8.53;;;6.73;;
23416;SDS011;11881;42.432;25.632;2022-11-13T03:31:29;9.73;;;6.63;;
23416;SDS011;11881;42.432;25.632;2022-11-13T03:33:54;10.00;;;6.60;;
23416;SDS011;11881;42.432;25.632;2022-11-13T03:36:20;8.80;;;6.60;;
23416;SDS011;11881;42.432;25.632;2022-11-13T03:38:46;8.13;;;6.77;;
23416;SDS011;11881;42.432;25.632;2022-11-13T03:41:11;9.03;;;6.50;;
23416;SDS011;11881;42.432;25.632;2022-11-13T03:43:39;10.17;;;7.13;;
23416;SDS011;11881;42.432;25.632;2022-11-13T03:46:05;10.47;;;6.77;;
23416;SDS011;11881;42.432;25.632;2022-11-13T03:48:30;9.33;;;6.40;;
23416;SDS011;11881;42.432;25.632;2022-11-13T03:50:56;7.93;;;6.27;;
23416;SDS011;11881;42.432;25.632;2022-11-13T03:53:21;8.20;;;6.57;;
23416;SDS011;11881;42.432;25.632;2022-11-13T03:55:47;8.37;;;6.60;;
23416;SDS011;11881;42.432;25.632;2022-11-13T03:58:12;8.73;;;7.07;;
23416;SDS011;11881;42.432;25.632;2022-11-13T04:00:38;11.97;;;6.57;;
23416;SDS011;11881;42.432;25.632;2022-11-13T04:03:05;13.63;;;6.43;;
23416;SDS011;11881;42.432;25.632;2022-11-13T04:05:30;11.87;;;6.87;;
23416;SDS011;11881;42.432;25.632;2022-11-13T04:07:56;10.80;;;7.10;;
23416;SDS011;11881;42.432;25.632;2022-11-13T04:10:21;12.13;;;7.00;;
23416;SDS011;11881;42.432;25.632;2022-11-13T04:12:47;8.37;;;6.40;;
23416;SDS011;11881;42.432;25.632;2022-11-13T04:15:12;9.47;;;6.60;;
23416;SDS011;11881;42.432;25.632;2022-11-13T04:17:37;7.60;;;5.97;;
23416;SDS011;11881;42.432;25.632;2022-11-13T04:20:03;7.33;;;6.53;;
23416;SDS011;11881;42.432;25.632;2022-11-13T04:22:29;8.67;;;6.10;;
23416;SDS011;11881;42.432;25.632;2022-11-13T04:24:54;11.27;;;6.40;;
23416;SDS011;11881;42.432;25.632;2022-11-13T04:27:19;11.03;;;6.77;;
23416;SDS011;11881;42.432;25.632;2022-11-13T04:29:45;9.57;;;6.27;;
23416;SDS011;11881;42.432;25.632;2022-11-13T04:32:10;8.47;;;6.20;;
23416;SDS011;11881;42.432;25.632;2022-11-13T04:34:36;7.27;;;5.93;;
23416;SDS011;11881;42.432;25.632;2022-11-13T04:37:01;8.27;;;6.67;;
23416;SDS011;11881;42.432;25.632;2022-11-13T04:39:27;9.37;;;6.63;;
23416;SDS011;11881;42.432;25.632;2022-11-13T04:41:52;7.83;;;5.80;;
23416;SDS011;11881;42.432;25.632;2022-11-13T04:44:36;8.63;;;6.23;;
23416;SDS011;11881;42.432;25.632;2022-11-13T04:47:02;7.73;;;6.30;;
23416;SDS011;11881;42.432;25.632;2022-11-13T04:49:27;9.13;;;6.90;;
23416;SDS011;11881;42.432;25.632;2022-11-13T04:51:53;9.73;;;6.53;;
23416;SDS011;11881;42.432;25.632;2022-11-13T04:54:18;11.73;;;6.83;;
23416;SDS011;11881;42.432;25.632;2022-11-13T04:56:43;10.97;;;6.60;;
23416;SDS011;11881;42.432;25.632;2022-11-13T04:59:09;11.87;;;7.43;;
23416;SDS011;11881;42.432;25.632;2022-11-13T05:01:35;10.17;;;6.83;;
23416;SDS011;11881;42.432;25.632;2022-11-13T05:04:00;12.67;;;7.20;;
23416;SDS011;11881;42.432;25.632;2022-11-13T05:06:26;13.87;;;8.93;;
23416;SDS011;11881;42.432;25.632;2022-11-13T05:08:52;16.67;;;10.20;;
23416;SDS011;11881;42.432;25.632;2022-11-13T05:11:17;16.63;;;10.37;;
23416;SDS011;11881;42.432;25.632;2022-11-13T05:13:43;10.10;;;9.00;;
23416;SDS011;11881;42.432;25.632;2022-11-13T05:16:09;14.47;;;9.00;;
23416;SDS011;11881;42.432;25.632;2022-11-13T05:18:36;11.00;;;8.03;;
23416;SDS011;11881;42.432;25.632;2022-11-13T05:21:03;14.40;;;7.10;;
23416;SDS011;11881;42.432;25.632;2022-11-13T05:23:32;9.33;;;6.57;;
23416;SDS011;11881;42.432;25.632;2022-11-13T05:26:31;9.70;;;6.60;;
23416;SDS011;11881;42.432;25.632;2022-11-13T05:28:50;8.33;;;6.57;;
23416;SDS011;11881;42.432;25.632;2022-11-13T05:31:16;9.03;;;6.70;;
23416;SDS011;11881;42.432;25.632;2022-11-13T05:33:42;10.10;;;6.47;;
23416;SDS011;11881;42.432;25.632;2022-11-13T05:36:10;9.30;;;6.20;;
23416;SDS011;11881;42.432;25.632;2022-11-13T05:38:38;7.33;;;6.23;;
23416;SDS011;11881;42.432;25.632;2022-11-13T05:41:06;12.77;;;6.57;;
23416;SDS011;11881;42.432;25.632;2022-11-13T05:43:42;9.30;;;6.13;;
23416;SDS011;11881;42.432;25.632;2022-11-13T05:46:11;8.07;;;6.07;;
23416;SDS011;11881;42.432;25.632;2022-11-13T05:48:38;7.60;;;6.47;;
23416;SDS011;11881;42.432;25.632;2022-11-13T05:51:09;11.67;;;6.10;;
23416;SDS011;11881;42.432;25.632;2022-11-13T05:53:36;12.53;;;6.40;;
23416;SDS011;11881;42.432;25.632;2022-11-13T05:56:03;9.40;;;5.90;;
23416;SDS011;11881;42.432;25.632;2022-11-13T05:58:35;9.00;;;6.60;;
23416;SDS011;11881;42.432;25.632;2022-11-13T06:01:11;9.93;;;6.80;;
23416;SDS011;11881;42.432;25.632;2022-11-13T06:03:37;10.13;;;6.80;;
23416;SDS011;11881;42.432;25.632;2022-11-13T06:06:04;10.57;;;6.10;;
23416;SDS011;11881;42.432;25.632;2022-11-13T06:08:30;10.57;;;6.73;;
23416;SDS011;11881;42.432;25.632;2022-11-13T06:10:59;9.43;;;6.67;;
23416;SDS011;11881;42.432;25.632;2022-11-13T06:13:26;12.47;;;6.83;;
23416;SDS011;11881;42.432;25.632;2022-11-13T06:15:52;11.50;;;6.57;;
23416;SDS011;11881;42.432;25.632;2022-11-13T06:18:21;8.50;;;6.37;;
23416;SDS011;11881;42.432;25.632;2022-11-13T06:20:47;12.70;;;6.33;;
23416;SDS011;11881;42.432;25.632;2022-11-13T06:23:13;12.70;;;6.83;;
23416;SDS011;11881;42.432;25.632;2022-11-13T06:25:38;11.20;;;7.00;;
23416;SDS011;11881;42.432;25.632;2022-11-13T06:28:04;8.87;;;6.93;;
23416;SDS011;11881;42.432;25.632;2022-11-13T06:30:29;8.43;;;6.33;;
23416;SDS011;11881;42.432;25.632;2022-11-13T06:32:55;8.77;;;6.80;;
23416;SDS011;11881;42.432;25.632;2022-11-13T06:35:20;8.00;;;6.90;;
23416;SDS011;11881;42.432;25.632;2022-11-13T06:37:46;9.10;;;7.03;;
23416;SDS011;11881;42.432;25.632;2022-11-13T06:40:12;8.13;;;6.63;;
23416;SDS011;11881;42.432;25.632;2022-11-13T06:42:37;11.30;;;7.60;;
23416;SDS011;11881;42.432;25.632;2022-11-13T06:45:03;12.80;;;7.17;;
23416;SDS011;11881;42.432;25.632;2022-11-13T06:47:29;10.83;;;6.90;;
23416;SDS011;11881;42.432;25.632;2022-11-13T06:49:54;7.00;;;6.23;;
23416;SDS011;11881;42.432;25.632;2022-11-13T06:52:20;8.53;;;6.73;;
23416;SDS011;11881;42.432;25.632;2022-11-13T06:54:45;10.47;;;7.00;;
23416;SDS011;11881;42.432;25.632;2022-11-13T06:57:10;13.27;;;6.57;;
23416;SDS011;11881;42.432;25.632;2022-11-13T06:59:36;10.67;;;6.47;;
23416;SDS011;11881;42.432;25.632;2022-11-13T07:02:01;14.37;;;7.00;;
23416;SDS011;11881;42.432;25.632;2022-11-13T07:04:27;10.10;;;7.23;;
23416;SDS011;11881;42.432;25.632;2022-11-13T07:06:53;10.00;;;6.77;;
23416;SDS011;11881;42.432;25.632;2022-11-13T07:09:18;11.23;;;6.30;;
23416;SDS011;11881;42.432;25.632;2022-11-13T07:11:43;11.30;;;7.20;;
23416;SDS011;11881;42.432;25.632;2022-11-13T07:14:12;9.83;;;7.57;;
23416;SDS011;11881;42.432;25.632;2022-11-13T07:16:37;11.83;;;7.50;;
23416;SDS011;11881;42.432;25.632;2022-11-13T07:19:03;9.47;;;6.43;;
23416;SDS011;11881;42.432;25.632;2022-11-13T07:21:29;9.60;;;7.47;;
23416;SDS011;11881;42.432;25.632;2022-11-13T07:23:54;9.63;;;7.27;;
23416;SDS011;11881;42.432;25.632;2022-11-13T07:26:20;10.27;;;7.30;;
23416;SDS011;11881;42.432;25.632;2022-11-13T07:28:45;9.17;;;7.10;;
23416;SDS011;11881;42.432;25.632;2022-11-13T07:31:12;12.00;;;7.60;;
23416;SDS011;11881;42.432;25.632;2022-11-13T07:33:39;9.47;;;7.30;;
23416;SDS011;11881;42.432;25.632;2022-11-13T07:36:05;11.87;;;7.07;;
23416;SDS011;11881;42.432;25.632;2022-11-13T07:38:31;12.43;;;6.37;;
23416;SDS011;11881;42.432;25.632;2022-11-13T07:40:57;12.93;;;6.97;;
23416;SDS011;11881;42.432;25.632;2022-11-13T07:43:23;10.77;;;6.70;;
23416;SDS011;11881;42.432;25.632;2022-11-13T07:45:48;14.80;;;6.93;;
23416;SDS011;11881;42.432;25.632;2022-11-13T07:48:18;11.70;;;6.27;;
23416;SDS011;11881;42.432;25.632;2022-11-13T07:50:46;12.40;;;7.07;;
23416;SDS011;11881;42.432;25.632;2022-11-13T07:53:12;12.43;;;7.03;;
23416;SDS011;11881;42.432;25.632;2022-11-13T07:55:37;10.97;;;6.83;;
23416;SDS011;11881;42.432;25.632;2022-11-13T07:58:03;14.47;;;9.33;;
23416;SDS011;11881;42.432;25.632;2022-11-13T08:00:30;25.13;;;17.07;;
23416;SDS011;11881;42.432;25.632;2022-11-13T08:02:57;22.30;;;15.83;;
23416;SDS011;11881;42.432;25.632;2022-11-13T08:05:29;20.30;;;12.77;;
23416;SDS011;11881;42.432;25.632;2022-11-13T08:07:54;13.57;;;9.00;;
23416;SDS011;11881;42.432;25.632;2022-11-13T08:10:20;15.93;;;10.47;;
23416;SDS011;11881;42.432;25.632;2022-11-13T08:12:45;18.40;;;10.27;;
23416;SDS011;11881;42.432;25.632;2022-11-13T08:15:11;22.67;;;11.63;;
23416;SDS011;11881;42.432;25.632;2022-11-13T08:17:37;17.47;;;9.83;;
23416;SDS011;11881;42.432;25.632;2022-11-13T08:20:03;11.97;;;7.43;;
23416;SDS011;11881;42.432;25.632;2022-11-13T08:22:29;12.07;;;7.57;;
23416;SDS011;11881;42.432;25.632;2022-11-13T08:24:55;14.57;;;7.80;;
23416;SDS011;11881;42.432;25.632;2022-11-13T08:27:21;11.73;;;6.97;;
23416;SDS011;11881;42.432;25.632;2022-11-13T08:29:47;12.10;;;7.07;;
23416;SDS011;11881;42.432;25.632;2022-11-13T08:32:14;8.63;;;6.80;;
23416;SDS011;11881;42.432;25.632;2022-11-13T08:34:40;11.93;;;7.37;;
23416;SDS011;11881;42.432;25.632;2022-11-13T08:37:05;10.43;;;6.57;;
23416;SDS011;11881;42.432;25.632;2022-11-13T08:39:30;9.90;;;5.37;;
23416;SDS011;11881;42.432;25.632;2022-11-13T08:41:56;7.67;;;5.63;;
23416;SDS011;11881;42.432;25.632;2022-11-13T08:44:21;11.13;;;6.83;;
23416;SDS011;11881;42.432;25.632;2022-11-13T08:46:47;13.37;;;6.20;;
23416;SDS011;11881;42.432;25.632;2022-11-13T08:49:12;13.37;;;7.93;;
23416;SDS011;11881;42.432;25.632;2022-11-13T08:51:38;12.00;;;7.60;;
23416;SDS011;11881;42.432;25.632;2022-11-13T08:54:04;8.63;;;7.03;;
23416;SDS011;11881;42.432;25.632;2022-11-13T08:56:29;10.07;;;7.27;;
23416;SDS011;11881;42.432;25.632;2022-11-13T08:58:54;19.90;;;8.93;;
23416;SDS011;11881;42.432;25.632;2022-11-13T09:01:20;16.43;;;7.00;;
23416;SDS011;11881;42.432;25.632;2022-11-13T09:03:50;9.90;;;5.90;;
23416;SDS011;11881;42.432;25.632;2022-11-13T09:06:15;7.53;;;5.80;;
23416;SDS011;11881;42.432;25.632;2022-11-13T09:08:41;8.07;;;6.10;;
23416;SDS011;11881;42.432;25.632;2022-11-13T09:11:06;8.63;;;5.13;;
23416;SDS011;11881;42.432;25.632;2022-11-13T09:13:32;10.20;;;5.23;;
23416;SDS011;11881;42.432;25.632;2022-11-13T09:15:58;16.07;;;7.43;;
23416;SDS011;11881;42.432;25.632;2022-11-13T09:18:25;22.37;;;12.67;;
23416;SDS011;11881;42.432;25.632;2022-11-13T09:20:51;15.37;;;8.30;;
23416;SDS011;11881;42.432;25.632;2022-11-13T09:23:16;11.20;;;7.20;;
23416;SDS011;11881;42.432;25.632;2022-11-13T09:25:41;10.27;;;6.57;;
23416;SDS011;11881;42.432;25.632;2022-11-13T09:28:08;10.33;;;5.90;;
23416;SDS011;11881;42.432;25.632;2022-11-13T09:30:36;9.13;;;6.50;;
23416;SDS011;11881;42.432;25.632;2022-11-13T09:33:02;10.87;;;7.27;;
23416;SDS011;11881;42.432;25.632;2022-11-13T09:35:28;14.77;;;12.17;;
23416;SDS011;11881;42.432;25.632;2022-11-13T09:38:06;20.80;;;13.40;;
23416;SDS011;11881;42.432;25.632;2022-11-13T09:46:05;16.30;;;13.13;;
23416;SDS011;11881;42.432;25.632;2022-11-13T09:48:41;14.60;;;12.33;;
23416;SDS011;11881;42.432;25.632;2022-11-13T09:51:17;15.77;;;10.33;;
23416;SDS011;11881;42.432;25.632;2022-11-13T09:53:50;18.00;;;11.10;;
23416;SDS011;11881;42.432;25.632;2022-11-13T10:02:06;40.53;;;24.00;;
23416;SDS011;11881;42.432;25.632;2022-11-13T10:05:02;21.03;;;12.63;;
23416;SDS011;11881;42.432;25.632;2022-11-13T10:07:44;8.27;;;5.73;;
23416;SDS011;11881;42.432;25.632;2022-11-13T10:12:57;5.47;;;4.97;;
23416;SDS011;11881;42.432;25.632;2022-11-13T10:15:24;8.23;;;4.63;;
23416;SDS011;11881;42.432;25.632;2022-11-13T10:17:55;8.27;;;5.13;;
23416;SDS011;11881;42.432;25.632;2022-11-13T10:23:07;10.27;;;6.00;;
23416;SDS011;11881;42.432;25.632;2022-11-13T10:25:38;7.53;;;5.13;;
23416;SDS011;11881;42.432;25.632;2022-11-13T10:28:19;6.50;;;4.87;;
23416;SDS011;11881;42.432;25.632;2022-11-13T10:30:49;7.23;;;4.80;;
23416;SDS011;11881;42.432;25.632;2022-11-13T10:33:16;7.60;;;4.60;;
23416;SDS011;11881;42.432;25.632;2022-11-13T10:36:48;8.57;;;6.00;;
23416;SDS011;11881;42.432;25.632;2022-11-13T10:38:42;8.03;;;5.00;;
23416;SDS011;11881;42.432;25.632;2022-11-13T10:41:15;9.27;;;5.03;;
23416;SDS011;11881;42.432;25.632;2022-11-13T10:43:55;14.00;;;5.40;;
23416;SDS011;11881;42.432;25.632;2022-11-13T10:46:39;7.10;;;4.60;;
23416;SDS011;11881;42.432;25.632;2022-11-13T10:49:25;15.73;;;7.07;;
23416;SDS011;11881;42.432;25.632;2022-11-13T10:51:54;11.03;;;5.23;;
23416;SDS011;11881;42.432;25.632;2022-11-13T10:54:25;9.00;;;5.07;;
23416;SDS011;11881;42.432;25.632;2022-11-13T10:57:13;9.53;;;5.53;;
23416;SDS011;11881;42.432;25.632;2022-11-13T10:59:58;9.97;;;4.80;;
23416;SDS011;11881;42.432;25.632;2022-11-13T11:02:26;15.03;;;5.00;;
23416;SDS011;11881;42.432;25.632;2022-11-13T11:05:05;7.93;;;4.83;;
23416;SDS011;11881;42.432;25.632;2022-11-13T11:07:40;5.77;;;4.77;;
23416;SDS011;11881;42.432;25.632;2022-11-13T11:10:13;8.07;;;5.43;;
23416;SDS011;11881;42.432;25.632;2022-11-13T11:12:56;12.83;;;5.20;;
23416;SDS011;11881;42.432;25.632;2022-11-13T11:20:57;9.93;;;4.87;;
23416;SDS011;11881;42.432;25.632;2022-11-13T11:25:59;6.63;;;4.53;;
23416;SDS011;11881;42.432;25.632;2022-11-13T11:28:31;6.60;;;4.87;;
23416;SDS011;11881;42.432;25.632;2022-11-13T11:34:40;9.73;;;5.13;;
23416;SDS011;11881;42.432;25.632;2022-11-13T11:37:22;6.87;;;4.93;;
23416;SDS011;11881;42.432;25.632;2022-11-13T11:40:11;5.57;;;4.60;;
23416;SDS011;11881;42.432;25.632;2022-11-13T11:42:46;10.03;;;5.67;;
23416;SDS011;11881;42.432;25.632;2022-11-13T11:45:22;7.33;;;4.93;;
23416;SDS011;11881;42.432;25.632;2022-11-13T11:47:48;6.33;;;4.93;;
23416;SDS011;11881;42.432;25.632;2022-11-13T11:50:15;8.17;;;5.53;;
23416;SDS011;11881;42.432;25.632;2022-11-13T12:01:03;6.73;;;5.10;;
23416;SDS011;11881;42.432;25.632;2022-11-13T12:06:30;8.27;;;5.50;;
23416;SDS011;11881;42.432;25.632;2022-11-13T12:11:34;12.60;;;6.77;;
23416;SDS011;11881;42.432;25.632;2022-11-13T12:14:12;9.07;;;5.73;;
23416;SDS011;11881;42.432;25.632;2022-11-13T12:16:57;8.60;;;5.60;;
23416;SDS011;11881;42.432;25.632;2022-11-13T12:22:30;10.60;;;7.40;;
23416;SDS011;11881;42.432;25.632;2022-11-13T12:27:57;10.13;;;6.47;;
23416;SDS011;11881;42.432;25.632;2022-11-13T12:30:43;9.50;;;6.03;;
23416;SDS011;11881;42.432;25.632;2022-11-13T12:36:02;7.40;;;5.47;;
23416;SDS011;11881;42.432;25.632;2022-11-13T12:38:49;7.23;;;4.67;;
23416;SDS011;11881;42.432;25.632;2022-11-13T12:41:35;7.80;;;5.30;;
23416;SDS011;11881;42.432;25.632;2022-11-13T12:44:15;6.97;;;5.43;;
23416;SDS011;11881;42.432;25.632;2022-11-13T12:46:47;9.13;;;5.37;;
23416;SDS011;11881;42.432;25.632;2022-11-13T12:49:15;8.37;;;5.20;;
23416;SDS011;11881;42.432;25.632;2022-11-13T12:51:52;10.93;;;5.40;;
23416;SDS011;11881;42.432;25.632;2022-11-13T12:54:30;7.93;;;5.60;;
23416;SDS011;11881;42.432;25.632;2022-11-13T12:57:30;8.70;;;5.70;;
23416;SDS011;11881;42.432;25.632;2022-11-13T12:59:53;8.83;;;4.80;;
23416;SDS011;11881;42.432;25.632;2022-11-13T13:02:30;5.67;;;4.47;;
23416;SDS011;11881;42.432;25.632;2022-11-13T13:16:09;8.03;;;5.20;;
23416;SDS011;11881;42.432;25.632;2022-11-13T13:18:38;6.60;;;5.10;;
23416;SDS011;11881;42.432;25.632;2022-11-13T13:21:14;7.43;;;5.33;;
23416;SDS011;11881;42.432;25.632;2022-11-13T13:23:45;8.73;;;5.63;;
23416;SDS011;11881;42.432;25.632;2022-11-13T13:34:12;12.90;;;6.03;;
23416;SDS011;11881;42.432;25.632;2022-11-13T13:36:51;11.60;;;6.33;;
23416;SDS011;11881;42.432;25.632;2022-11-13T13:39:31;11.37;;;6.40;;
23416;SDS011;11881;42.432;25.632;2022-11-13T13:47:50;10.53;;;6.10;;
23416;SDS011;11881;42.432;25.632;2022-11-13T13:50:21;10.43;;;5.70;;
23416;SDS011;11881;42.432;25.632;2022-11-13T13:52:49;9.13;;;6.07;;
23416;SDS011;11881;42.432;25.632;2022-11-13T13:55:18;14.67;;;7.90;;
23416;SDS011;11881;42.432;25.632;2022-11-13T13:57:50;13.30;;;6.97;;
23416;SDS011;11881;42.432;25.632;2022-11-13T14:00:17;14.53;;;6.93;;
23416;SDS011;11881;42.432;25.632;2022-11-13T14:02:45;23.03;;;9.70;;
23416;SDS011;11881;42.432;25.632;2022-11-13T14:07:54;8.83;;;6.60;;
23416;SDS011;11881;42.432;25.632;2022-11-13T14:10:23;11.30;;;7.30;;
23416;SDS011;11881;42.432;25.632;2022-11-13T14:12:52;19.23;;;6.90;;
23416;SDS011;11881;42.432;25.632;2022-11-13T14:15:31;12.90;;;6.53;;
23416;SDS011;11881;42.432;25.632;2022-11-13T14:18:05;12.70;;;6.37;;
23416;SDS011;11881;42.432;25.632;2022-11-13T14:20:47;11.33;;;6.80;;
23416;SDS011;11881;42.432;25.632;2022-11-13T14:23:47;10.37;;;7.00;;
23416;SDS011;11881;42.432;25.632;2022-11-13T14:26:07;10.40;;;6.60;;
23416;SDS011;11881;42.432;25.632;2022-11-13T14:31:14;16.00;;;7.53;;
23416;SDS011;11881;42.432;25.632;2022-11-13T14:33:44;11.10;;;7.00;;
23416;SDS011;11881;42.432;25.632;2022-11-13T14:36:13;9.53;;;6.30;;
23416;SDS011;11881;42.432;25.632;2022-11-13T14:38:44;13.03;;;6.70;;
23416;SDS011;11881;42.432;25.632;2022-11-13T14:41:19;14.90;;;7.20;;
23416;SDS011;11881;42.432;25.632;2022-11-13T14:43:57;10.17;;;7.10;;
23416;SDS011;11881;42.432;25.632;2022-11-13T14:48:51;11.27;;;7.33;;
23416;SDS011;11881;42.432;25.632;2022-11-13T14:51:29;14.93;;;7.30;;
23416;SDS011;11881;42.432;25.632;2022-11-13T14:54:00;15.13;;;7.70;;
23416;SDS011;11881;42.432;25.632;2022-11-13T14:56:31;15.23;;;8.13;;
23416;SDS011;11881;42.432;25.632;2022-11-13T14:59:15;12.67;;;7.57;;
23416;SDS011;11881;42.432;25.632;2022-11-13T15:01:53;12.43;;;8.07;;
23416;SDS011;11881;42.432;25.632;2022-11-13T15:04:19;13.23;;;9.10;;
23416;SDS011;11881;42.432;25.632;2022-11-13T15:06:44;15.40;;;8.80;;
23416;SDS011;11881;42.432;25.632;2022-11-13T15:09:13;16.00;;;9.10;;
23416;SDS011;11881;42.432;25.632;2022-11-13T15:11:40;22.17;;;10.33;;
23416;SDS011;11881;42.432;25.632;2022-11-13T15:14:14;23.07;;;9.80;;
23416;SDS011;11881;42.432;25.632;2022-11-13T15:16:40;19.40;;;9.93;;
23416;SDS011;11881;42.432;25.632;2022-11-13T15:19:18;19.93;;;9.80;;
23416;SDS011;11881;42.432;25.632;2022-11-13T15:21:49;21.23;;;10.67;;
23416;SDS011;11881;42.432;25.632;2022-11-13T15:24:15;20.40;;;10.57;;
23416;SDS011;11881;42.432;25.632;2022-11-13T15:26:40;24.63;;;11.70;;
23416;SDS011;11881;42.432;25.632;2022-11-13T15:29:06;14.97;;;10.70;;
23416;SDS011;11881;42.432;25.632;2022-11-13T15:31:33;31.37;;;11.53;;
23416;SDS011;11881;42.432;25.632;2022-11-13T15:34:02;20.03;;;10.67;;
23416;SDS011;11881;42.432;25.632;2022-11-13T15:36:28;26.03;;;10.40;;
23416;SDS011;11881;42.432;25.632;2022-11-13T15:38:54;21.63;;;10.43;;
23416;SDS011;11881;42.432;25.632;2022-11-13T15:41:21;18.37;;;11.40;;
23416;SDS011;11881;42.432;25.632;2022-11-13T15:43:48;30.03;;;11.53;;
23416;SDS011;11881;42.432;25.632;2022-11-13T15:46:19;21.53;;;12.13;;
23416;SDS011;11881;42.432;25.632;2022-11-13T15:48:46;23.97;;;14.27;;
23416;SDS011;11881;42.432;25.632;2022-11-13T15:56:45;28.07;;;12.03;;
23416;SDS011;11881;42.432;25.632;2022-11-13T15:59:11;23.80;;;13.60;;
23416;SDS011;11881;42.432;25.632;2022-11-13T16:01:38;32.87;;;14.33;;
23416;SDS011;11881;42.432;25.632;2022-11-13T16:04:06;31.93;;;15.40;;
23416;SDS011;11881;42.432;25.632;2022-11-13T16:06:32;28.23;;;14.80;;
23416;SDS011;11881;42.432;25.632;2022-11-13T16:09:00;30.10;;;16.03;;